createdAt,value
2022-11-16T00:00:05.431Z,34.80
2022-11-16T00:02:33.072Z,33.87
2022-11-16T00:05:00.031Z,36.07
2022-11-16T00:07:29.228Z,36.33
2022-11-16T00:09:58.481Z,36.77
2022-11-16T00:12:25.330Z,47.07
2022-11-16T00:14:56.943Z,45.73
2022-11-16T00:17:23.782Z,41.63
2022-11-16T00:19:50.761Z,39.67
2022-11-16T00:22:19.677Z,38.30
2022-11-16T00:24:49.555Z,39.33
2022-11-16T00:27:19.149Z,44.97
2022-11-16T00:29:46.003Z,41.10
2022-11-16T00:32:17.373Z,38.53
2022-11-16T00:34:44.233Z,45.43
2022-11-16T00:37:11.096Z,44.97
2022-11-16T00:39:38.126Z,44.20
2022-11-16T00:42:05.088Z,50.33
2022-11-16T00:44:32.271Z,43.63
2022-11-16T00:47:01.188Z,41.27
2022-11-16T00:49:28.093Z,51.33
2022-11-16T00:51:55.027Z,41.90
2022-11-16T00:54:27.918Z,44.90
2022-11-16T00:56:57.772Z,44.17
2022-11-16T00:59:26.787Z,43.90
2022-11-16T01:01:56.092Z,50.40
2022-11-16T01:04:22.975Z,45.67
2022-11-16T01:06:51.889Z,45.97
2022-11-16T01:09:23.329Z,45.47
2022-11-16T01:12:08.487Z,69.07
2022-11-16T01:14:46.612Z,51.33
2022-11-16T01:17:15.980Z,42.77
2022-11-16T01:19:47.459Z,46.90
2022-11-16T01:22:16.909Z,51.30
2022-11-16T01:24:48.484Z,48.53
2022-11-16T01:27:15.553Z,45.77
2022-11-16T01:29:42.544Z,55.53
2022-11-16T01:32:09.454Z,56.07
2022-11-16T01:34:36.526Z,54.57
2022-11-16T01:37:05.434Z,57.37
2022-11-16T01:39:37.899Z,51.70
2022-11-16T01:42:07.062Z,62.93
2022-11-16T01:44:35.851Z,51.90
2022-11-16T01:47:08.813Z,54.57
2022-11-16T01:49:43.933Z,53.20
2022-11-16T01:52:17.267Z,55.47
2022-11-16T01:54:47.361Z,50.77
2022-11-16T01:57:21.356Z,58.43
2022-11-16T01:59:57.247Z,48.23
2022-11-16T02:02:29.256Z,56.20
2022-11-16T02:04:59.843Z,54.80
2022-11-16T02:08:04.782Z,51.57
2022-11-16T02:11:02.604Z,56.83
2022-11-16T02:14:17.843Z,56.93
2022-11-16T02:17:01.259Z,58.90
2022-11-16T02:20:21.622Z,57.83
2022-11-16T02:23:15.805Z,62.00
2022-11-16T02:26:25.699Z,52.37
2022-11-16T02:29:48.288Z,57.83
2022-11-16T02:32:30.931Z,56.53
2022-11-16T02:35:19.630Z,53.83
2022-11-16T02:37:56.108Z,54.50
2022-11-16T02:40:30.763Z,59.80
2022-11-16T02:43:07.941Z,56.73
2022-11-16T02:45:42.958Z,53.03
2022-11-16T02:48:19.418Z,58.27
2022-11-16T02:50:48.998Z,50.90
2022-11-16T02:53:16.027Z,57.00
2022-11-16T02:55:45.205Z,53.43
2022-11-16T02:58:18.436Z,56.27
2022-11-16T03:01:17.649Z,51.60
2022-11-16T03:03:50.241Z,57.07
2022-11-16T03:06:24.822Z,52.77
2022-11-16T03:09:14.118Z,54.90
2022-11-16T03:12:02.285Z,55.77
2022-11-16T03:14:44.335Z,54.03
2022-11-16T03:17:24.317Z,48.27
2022-11-16T03:20:18.260Z,56.40
2022-11-16T03:22:56.344Z,48.00
2022-11-16T03:25:26.536Z,52.00
2022-11-16T03:27:54.727Z,52.40
2022-11-16T03:30:25.491Z,54.50
2022-11-16T03:32:57.219Z,51.37
2022-11-16T03:35:35.090Z,56.00
2022-11-16T03:38:07.372Z,47.67
2022-11-16T03:40:36.351Z,53.70
2022-11-16T03:43:06.776Z,54.80
2022-11-16T03:45:36.320Z,50.33
2022-11-16T03:48:03.342Z,54.57
2022-11-16T03:50:30.236Z,54.80
2022-11-16T03:52:59.299Z,54.90
2022-11-16T03:55:26.154Z,54.00
2022-11-16T03:57:53.006Z,53.57
2022-11-16T04:00:22.394Z,57.50
2022-11-16T04:02:49.901Z,53.30
2022-11-16T04:05:40.225Z,60.00
2022-11-16T04:08:33.136Z,55.67
2022-11-16T04:11:21.659Z,61.20
2022-11-16T04:14:09.295Z,58.17
2022-11-16T04:16:55.149Z,58.53
2022-11-16T04:19:40.253Z,55.43
2022-11-16T04:22:37.519Z,56.60
2022-11-16T04:25:17.461Z,59.43
2022-11-16T04:28:05.187Z,54.80
2022-11-16T04:30:52.092Z,56.47
2022-11-16T04:33:37.545Z,61.47
2022-11-16T04:36:26.355Z,55.17
2022-11-16T04:38:55.453Z,56.87
2022-11-16T04:41:40.668Z,62.00
2022-11-16T04:44:07.499Z,59.90
2022-11-16T04:46:52.668Z,59.80
2022-11-16T04:49:21.817Z,53.27
2022-11-16T04:51:49.315Z,53.00
2022-11-16T04:54:16.194Z,58.20
2022-11-16T04:56:46.079Z,50.90
2022-11-16T04:59:13.834Z,52.70
2022-11-16T05:02:06.520Z,57.80
2022-11-16T05:04:40.007Z,50.07
2022-11-16T05:07:12.969Z,59.73
2022-11-16T05:09:43.073Z,52.97
2022-11-16T05:12:14.783Z,54.20
2022-11-16T05:14:42.940Z,47.30
2022-11-16T05:17:14.945Z,49.43
2022-11-16T05:20:02.780Z,50.07
2022-11-16T05:22:31.733Z,57.13
2022-11-16T05:24:59.090Z,60.70
2022-11-16T05:27:27.974Z,52.07
2022-11-16T05:29:57.812Z,65.37
2022-11-16T05:32:30.220Z,58.73
2022-11-16T05:35:01.648Z,56.43
2022-11-16T05:37:30.397Z,55.97
2022-11-16T05:39:59.712Z,58.67
2022-11-16T05:42:26.561Z,55.90
2022-11-16T05:44:53.591Z,59.70
2022-11-16T05:47:20.455Z,63.57
2022-11-16T05:49:47.349Z,60.60
2022-11-16T05:52:14.190Z,59.40
2022-11-16T05:54:41.070Z,58.93
2022-11-16T05:57:07.929Z,60.07
2022-11-16T05:59:37.739Z,57.70
2022-11-16T06:02:06.823Z,61.83
2022-11-16T06:04:36.358Z,51.50
2022-11-16T06:07:03.327Z,56.87
2022-11-16T06:09:32.713Z,57.93
2022-11-16T06:11:59.621Z,64.23
2022-11-16T06:14:28.521Z,57.20
2022-11-16T06:16:55.387Z,55.60
2022-11-16T06:19:22.327Z,52.40
2022-11-16T06:21:49.784Z,50.80
2022-11-16T06:24:16.642Z,54.70
2022-11-16T06:26:43.519Z,49.90
2022-11-16T06:29:10.347Z,54.30
2022-11-16T06:31:37.200Z,55.57
2022-11-16T06:34:04.127Z,57.70
2022-11-16T06:36:30.992Z,51.43
2022-11-16T06:39:01.016Z,57.17
2022-11-16T06:41:27.864Z,58.00
2022-11-16T06:43:54.729Z,86.23
2022-11-16T06:46:24.642Z,57.93
2022-11-16T06:48:51.681Z,52.67
2022-11-16T06:51:20.829Z,48.33
2022-11-16T06:53:47.665Z,53.33
2022-11-16T06:56:16.215Z,59.00
2022-11-16T06:58:51.933Z,51.07
2022-11-16T07:01:23.201Z,60.53
2022-11-16T07:03:53.044Z,55.20
2022-11-16T07:06:22.156Z,51.70
2022-11-16T07:08:49.111Z,52.70
2022-11-16T07:11:16.004Z,77.20
2022-11-16T07:13:44.946Z,51.13
2022-11-16T07:16:14.963Z,51.90
2022-11-16T07:18:42.105Z,55.90
2022-11-16T07:21:16.779Z,60.13
2022-11-16T07:23:44.407Z,56.93
2022-11-16T07:26:11.908Z,54.50
2022-11-16T07:28:47.737Z,48.97
2022-11-16T07:31:16.195Z,52.60
2022-11-16T07:33:43.150Z,51.70
2022-11-16T07:36:14.410Z,59.37
2022-11-16T07:38:41.830Z,48.83
2022-11-16T07:41:15.320Z,55.47
2022-11-16T07:43:49.891Z,54.30
2022-11-16T07:46:45.858Z,55.60
2022-11-16T07:49:15.270Z,48.73
2022-11-16T07:51:42.328Z,48.37
2022-11-16T07:54:17.557Z,52.93
2022-11-16T07:56:44.469Z,47.47
2022-11-16T07:59:13.992Z,53.93
2022-11-16T08:01:40.907Z,59.57
2022-11-16T08:04:07.836Z,63.47
2022-11-16T08:06:34.678Z,55.23
2022-11-16T08:09:02.109Z,56.50
2022-11-16T08:11:31.198Z,51.27
2022-11-16T08:13:58.168Z,61.57
2022-11-16T08:16:25.155Z,55.33
2022-11-16T08:18:52.050Z,54.80
2022-11-16T08:21:19.932Z,55.77
2022-11-16T08:23:52.597Z,52.20
2022-11-16T08:26:25.311Z,61.40
2022-11-16T08:28:53.738Z,59.27
2022-11-16T08:31:24.332Z,69.20
2022-11-16T08:33:56.739Z,54.50
2022-11-16T08:36:23.769Z,56.47
2022-11-16T08:38:52.645Z,58.03
2022-11-16T08:41:24.617Z,59.60
2022-11-16T08:43:53.248Z,57.97
2022-11-16T08:46:21.577Z,60.23
2022-11-16T08:48:51.380Z,68.17
2022-11-16T08:51:19.585Z,62.03
2022-11-16T08:53:48.248Z,62.47
2022-11-16T08:56:17.828Z,61.20
2022-11-16T08:58:47.085Z,71.17
2022-11-16T09:01:21.553Z,64.33
2022-11-16T09:03:48.729Z,61.90
2022-11-16T09:06:16.194Z,64.57
2022-11-16T09:08:47.221Z,66.80
2022-11-16T09:11:17.887Z,70.20
2022-11-16T09:13:46.811Z,61.50
2022-11-16T09:16:17.802Z,70.77
2022-11-16T09:18:50.766Z,69.40
2022-11-16T09:21:29.213Z,70.57
2022-11-16T09:23:57.732Z,66.37
2022-11-16T09:26:28.376Z,71.90
2022-11-16T09:29:04.314Z,63.77
2022-11-16T09:31:34.761Z,62.37
2022-11-16T09:34:02.865Z,67.73
2022-11-16T09:36:30.430Z,68.80
2022-11-16T09:42:13.955Z,65.73
2022-11-16T09:45:11.293Z,71.63
2022-11-16T09:47:49.746Z,71.60
2022-11-16T09:51:01.841Z,68.27
2022-11-16T09:53:37.426Z,75.67
2022-11-16T09:56:31.727Z,68.70
2022-11-16T09:59:28.777Z,75.27
2022-11-16T10:02:09.542Z,83.20
2022-11-16T10:04:38.324Z,70.70
2022-11-16T10:07:13.561Z,75.03
2022-11-16T10:09:46.983Z,73.87
2022-11-16T10:12:35.741Z,65.23
2022-11-16T10:15:30.039Z,71.80
2022-11-16T10:18:42.481Z,77.60
2022-11-16T10:21:18.288Z,71.47
2022-11-16T10:24:24.506Z,81.50
2022-11-16T10:27:17.863Z,73.63
2022-11-16T10:30:16.360Z,73.50
2022-11-16T10:33:11.143Z,76.00
2022-11-16T10:35:49.043Z,75.73
2022-11-16T10:38:28.769Z,70.50
2022-11-16T10:41:13.546Z,75.77
2022-11-16T10:43:45.412Z,69.73
2022-11-16T10:46:27.163Z,78.10
2022-11-16T10:49:36.952Z,81.27
2022-11-16T10:52:04.062Z,72.50
2022-11-16T10:54:30.912Z,77.43
2022-11-16T10:57:17.312Z,70.20
2022-11-16T10:59:46.891Z,74.23
2022-11-16T11:02:23.102Z,77.63
2022-11-16T11:05:10.990Z,77.63
2022-11-16T11:07:40.199Z,85.90
2022-11-16T11:10:30.933Z,81.77
2022-11-16T11:13:13.666Z,82.37
2022-11-16T11:15:44.585Z,85.30
2022-11-16T11:18:23.505Z,89.70
2022-11-16T11:21:08.102Z,100.07
2022-11-16T11:23:51.608Z,95.40
2022-11-16T11:26:39.127Z,92.93
2022-11-16T11:29:31.371Z,98.37
2022-11-16T11:32:04.451Z,82.73
2022-11-16T11:34:41.790Z,80.50
2022-11-16T11:37:16.678Z,83.60
2022-11-16T11:39:43.666Z,94.07
2022-11-16T11:42:13.630Z,87.27
2022-11-16T11:44:49.649Z,88.90
2022-11-16T11:48:06.992Z,87.23
2022-11-16T11:50:47.247Z,80.50
2022-11-16T11:53:24.118Z,77.63
2022-11-16T11:56:03.168Z,77.47
2022-11-16T11:58:33.521Z,73.10
2022-11-16T12:01:37.838Z,89.27
2022-11-16T12:04:20.371Z,77.40
2022-11-16T12:07:05.785Z,78.37
2022-11-16T12:09:38.241Z,82.83
2022-11-16T12:12:19.880Z,79.90
2022-11-16T12:15:11.594Z,81.70
2022-11-16T12:18:02.412Z,72.17
2022-11-16T12:21:14.205Z,84.87
2022-11-16T12:24:36.861Z,80.10
2022-11-16T12:27:44.483Z,79.27
2022-11-16T12:30:19.318Z,79.83
2022-11-16T12:33:10.549Z,83.57
2022-11-16T12:35:48.779Z,86.43
2022-11-16T12:38:40.277Z,87.80
2022-11-16T12:41:37.838Z,79.30
2022-11-16T12:44:42.043Z,85.23
2022-11-16T12:47:33.582Z,84.20
2022-11-16T12:50:26.665Z,97.70
2022-11-16T12:53:11.691Z,90.57
2022-11-16T12:56:11.226Z,89.63
2022-11-16T12:58:47.194Z,90.60
2022-11-16T13:01:23.265Z,102.93
2022-11-16T13:03:59.960Z,95.60
2022-11-16T13:06:44.210Z,96.73
2022-11-16T13:09:22.395Z,113.37
2022-11-16T13:12:01.391Z,115.43
2022-11-16T13:14:40.888Z,105.53
2022-11-16T13:17:31.943Z,128.50
2022-11-16T13:20:28.488Z,106.50
2022-11-16T13:23:06.922Z,104.60
2022-11-16T13:26:10.482Z,91.90
2022-11-16T13:28:53.346Z,89.93
2022-11-16T13:31:31.710Z,93.73
2022-11-16T13:34:18.153Z,83.10
2022-11-16T13:36:49.590Z,87.80
2022-11-16T13:39:22.559Z,72.70
2022-11-16T13:42:20.083Z,78.10
2022-11-16T13:44:51.640Z,78.40
2022-11-16T13:47:30.988Z,73.83
2022-11-16T13:50:01.452Z,71.53
2022-11-16T13:56:03.547Z,60.43
2022-11-16T13:58:32.377Z,70.17
2022-11-16T14:01:02.018Z,68.23
2022-11-16T14:03:40.630Z,59.63
2022-11-16T14:06:15.652Z,66.93
2022-11-16T14:08:53.386Z,60.70
2022-11-16T14:11:33.943Z,64.60
2022-11-16T14:14:08.675Z,60.40
2022-11-16T14:16:46.299Z,55.03
2022-11-16T14:19:51.849Z,58.13
2022-11-16T14:22:49.661Z,55.87
2022-11-16T14:25:51.767Z,54.50
2022-11-16T14:28:30.820Z,58.57
2022-11-16T14:31:30.216Z,63.10
2022-11-16T14:34:00.168Z,55.80
2022-11-16T14:36:41.992Z,64.57
2022-11-16T14:39:33.844Z,55.70
2022-11-16T14:42:48.199Z,59.57
2022-11-16T14:45:28.175Z,54.60
2022-11-16T14:48:19.255Z,54.70
2022-11-16T14:51:11.076Z,59.93
2022-11-16T14:53:42.338Z,56.13
2022-11-16T14:56:18.705Z,61.13
2022-11-16T14:58:59.070Z,60.73
2022-11-16T15:01:42.075Z,67.33
2022-11-16T15:04:19.089Z,62.23
2022-11-16T15:06:54.859Z,78.87
2022-11-16T15:09:38.681Z,65.70
2022-11-16T15:12:32.744Z,71.43
2022-11-16T15:15:12.113Z,71.97
2022-11-16T15:17:45.560Z,66.73
2022-11-16T15:20:23.188Z,73.17
2022-11-16T15:22:58.633Z,65.53
2022-11-16T15:25:35.632Z,75.67
2022-11-16T15:28:29.822Z,62.47
2022-11-16T15:31:04.882Z,64.37
2022-11-16T15:33:41.962Z,65.87
2022-11-16T15:36:44.025Z,77.87
2022-11-16T15:39:34.395Z,57.50
2022-11-16T15:42:04.065Z,65.93
2022-11-16T15:44:33.546Z,63.20
2022-11-16T15:47:02.910Z,60.93
2022-11-16T15:49:30.468Z,62.33
2022-11-16T15:52:01.060Z,65.87
2022-11-16T15:54:51.193Z,69.60
2022-11-16T15:57:21.203Z,70.30
2022-11-16T15:59:56.391Z,63.77
2022-11-16T16:02:28.834Z,68.50
2022-11-16T16:04:57.955Z,59.27
2022-11-16T16:07:43.137Z,62.70
2022-11-16T16:10:18.775Z,56.30
2022-11-16T16:12:54.916Z,51.03
2022-11-16T16:15:30.020Z,58.30
2022-11-16T16:18:01.348Z,53.10
2022-11-16T16:20:32.676Z,57.23
2022-11-16T16:23:13.604Z,50.60
2022-11-16T16:25:40.432Z,52.93
2022-11-16T16:28:07.291Z,62.47
2022-11-16T16:30:34.956Z,55.80
2022-11-16T16:33:04.249Z,64.53
2022-11-16T16:35:31.158Z,52.10
2022-11-16T16:38:01.040Z,55.57
2022-11-16T16:40:29.032Z,49.60
2022-11-16T16:42:56.870Z,44.13
2022-11-16T16:45:38.845Z,41.43
2022-11-16T16:48:11.706Z,52.17
2022-11-16T16:50:39.233Z,46.23
2022-11-16T16:53:06.669Z,44.07
2022-11-16T16:55:37.789Z,46.57
2022-11-16T16:58:05.378Z,41.10
2022-11-16T17:00:37.086Z,45.87
2022-11-16T17:03:09.329Z,43.30
2022-11-16T17:05:36.216Z,42.83
2022-11-16T17:08:03.646Z,53.27
2022-11-16T17:10:30.586Z,42.80
2022-11-16T17:13:03.043Z,50.27
2022-11-16T17:15:32.452Z,38.83
2022-11-16T17:18:02.606Z,41.67
2022-11-16T17:20:29.461Z,46.17
2022-11-16T17:22:56.320Z,42.53
2022-11-16T17:25:25.293Z,40.13
2022-11-16T17:27:52.135Z,32.00
2022-11-16T17:30:22.097Z,32.60
2022-11-16T17:32:53.838Z,36.60
2022-11-16T17:35:20.740Z,33.50
2022-11-16T17:37:50.598Z,26.77
2022-11-16T17:40:17.565Z,37.30
2022-11-16T17:42:44.461Z,23.37
2022-11-16T17:45:12.025Z,24.40
2022-11-16T17:47:39.167Z,27.83
2022-11-16T17:50:06.876Z,21.80
2022-11-16T17:52:36.776Z,31.57
2022-11-16T17:55:06.143Z,22.33
2022-11-16T17:57:35.784Z,19.90
2022-11-16T18:00:03.116Z,19.63
2022-11-16T18:02:34.793Z,18.10
2022-11-16T18:05:01.759Z,17.13
2022-11-16T18:07:30.575Z,21.03
2022-11-16T18:09:57.529Z,21.30
2022-11-16T18:12:26.588Z,18.00
2022-11-16T18:15:21.425Z,14.33
2022-11-16T18:17:40.346Z,18.83
2022-11-16T18:20:10.745Z,15.03
2022-11-16T18:22:38.115Z,13.60
2022-11-16T18:25:06.028Z,14.10
2022-11-16T18:27:34.198Z,15.03
2022-11-16T18:30:04.190Z,18.73
2022-11-16T18:32:31.169Z,9.90
2022-11-16T18:34:58.016Z,15.33
2022-11-16T18:37:25.373Z,12.00
2022-11-16T18:39:52.261Z,11.33
2022-11-16T18:42:22.150Z,11.93
2022-11-16T18:44:51.365Z,13.53
2022-11-16T18:47:20.798Z,12.77
2022-11-16T18:49:51.733Z,10.73
2022-11-16T18:52:18.768Z,15.70
2022-11-16T18:54:45.651Z,13.50
2022-11-16T18:57:12.554Z,11.03
2022-11-16T18:59:42.396Z,11.50
2022-11-16T19:02:12.443Z,13.43
2022-11-16T19:04:40.301Z,10.07
2022-11-16T19:07:13.005Z,9.07
2022-11-16T19:09:40.014Z,11.30
2022-11-16T19:12:09.448Z,11.10
2022-11-16T19:14:36.483Z,10.67
2022-11-16T19:17:04.864Z,9.77
2022-11-16T19:19:31.804Z,10.70
2022-11-16T19:21:58.729Z,10.70
2022-11-16T19:24:27.929Z,11.20
2022-11-16T19:26:57.287Z,10.50
2022-11-16T19:29:26.876Z,10.47
2022-11-16T19:31:55.785Z,9.70
2022-11-16T19:34:23.033Z,13.07
2022-11-16T19:36:50.000Z,10.00
2022-11-16T19:39:17.712Z,13.43
2022-11-16T19:41:47.476Z,11.23
2022-11-16T19:44:16.493Z,10.90
2022-11-16T19:46:43.745Z,10.90
2022-11-16T19:49:18.543Z,11.10
2022-11-16T19:51:49.662Z,11.50
2022-11-16T19:54:19.829Z,13.17
2022-11-16T19:56:50.582Z,13.33
2022-11-16T19:59:20.678Z,14.60
2022-11-16T20:01:52.073Z,15.27
2022-11-16T20:04:25.529Z,19.27
2022-11-16T20:06:52.468Z,19.10
2022-11-16T20:09:19.802Z,21.43
2022-11-16T20:11:55.067Z,15.37
2022-11-16T20:14:24.441Z,13.60
2022-11-16T20:16:51.554Z,13.57
2022-11-16T20:19:21.532Z,14.07
2022-11-16T20:21:53.211Z,14.83
2022-11-16T20:24:20.288Z,20.83
2022-11-16T20:26:51.035Z,20.07
2022-11-16T20:29:20.549Z,15.10
2022-11-16T20:31:47.996Z,14.77
2022-11-16T20:34:20.741Z,15.13
2022-11-16T20:36:51.291Z,18.47
2022-11-16T20:39:21.389Z,16.10
2022-11-16T20:41:48.853Z,11.67
2022-11-16T20:44:21.892Z,14.80
2022-11-16T20:46:54.075Z,16.50
2022-11-16T20:49:21.045Z,14.90
2022-11-16T20:51:49.442Z,13.43
2022-11-16T20:54:18.824Z,12.60
2022-11-16T20:56:45.702Z,14.37
2022-11-16T20:59:12.593Z,13.50
2022-11-16T21:01:47.512Z,14.20
2022-11-16T21:04:20.604Z,14.57
2022-11-16T21:06:47.450Z,14.03
2022-11-16T21:09:22.760Z,15.37
2022-11-16T21:12:10.979Z,20.10
2022-11-16T21:14:37.919Z,18.17
2022-11-16T21:17:04.955Z,11.53
2022-11-16T21:19:31.891Z,13.70
2022-11-16T21:21:58.765Z,13.33
2022-11-16T21:24:27.546Z,17.00
2022-11-16T21:26:57.130Z,17.93
2022-11-16T21:29:25.972Z,13.47
2022-11-16T21:31:52.947Z,11.93
2022-11-16T21:34:20.337Z,11.40
2022-11-16T21:36:52.315Z,12.90
2022-11-16T21:39:19.203Z,11.43
2022-11-16T21:41:48.346Z,10.70
2022-11-16T21:44:15.365Z,15.63
2022-11-16T21:46:42.345Z,12.90
2022-11-16T21:49:09.411Z,12.63
2022-11-16T21:51:38.868Z,12.10
2022-11-16T21:54:07.885Z,15.67
2022-11-16T21:56:36.900Z,13.30
2022-11-16T21:59:06.354Z,12.47
2022-11-16T22:01:59.436Z,19.53
2022-11-16T22:04:45.121Z,9.63
2022-11-16T22:07:36.889Z,9.43
2022-11-16T22:10:10.955Z,11.30
2022-11-16T22:12:38.884Z,9.77
2022-11-16T22:15:07.401Z,10.10
2022-11-16T22:17:37.257Z,10.13
2022-11-16T22:20:04.703Z,9.37
2022-11-16T22:22:33.781Z,13.50
2022-11-16T22:25:01.057Z,8.07
2022-11-16T22:27:28.218Z,8.20
2022-11-16T22:29:55.116Z,8.97
2022-11-16T22:32:22.079Z,8.23
2022-11-16T22:34:51.491Z,8.63
2022-11-16T22:37:20.874Z,9.43
2022-11-16T22:39:47.781Z,9.80
2022-11-16T22:42:16.801Z,10.30
2022-11-16T22:44:43.769Z,7.73
2022-11-16T22:47:13.092Z,8.57
2022-11-16T22:49:40.195Z,8.40
2022-11-16T22:52:07.115Z,8.13
2022-11-16T22:54:37.780Z,7.60
2022-11-16T22:57:07.274Z,7.97
2022-11-16T22:59:34.142Z,9.47
2022-11-16T23:02:04.898Z,9.20
2022-11-16T23:04:32.251Z,8.80
2022-11-16T23:07:01.265Z,7.80
2022-11-16T23:09:28.289Z,7.43
2022-11-16T23:12:14.008Z,8.00
2022-11-16T23:14:59.392Z,7.13
2022-11-16T23:17:31.013Z,10.27
2022-11-16T23:20:18.833Z,8.87
2022-11-16T23:23:04.114Z,7.67
2022-11-16T23:25:49.736Z,9.80
2022-11-16T23:28:19.162Z,8.03
2022-11-16T23:30:46.136Z,6.83
2022-11-16T23:33:13.059Z,6.80
2022-11-16T23:35:40.002Z,6.57
2022-11-16T23:38:09.919Z,7.57
2022-11-16T23:40:40.449Z,6.27
2022-11-16T23:43:28.762Z,8.13
2022-11-16T23:45:57.758Z,7.13
2022-11-16T23:48:24.733Z,13.40
2022-11-16T23:50:51.599Z,6.47
2022-11-16T23:53:18.540Z,7.03
2022-11-16T23:55:48.421Z,8.03
2022-11-16T23:58:15.425Z,7.40
